D/T METAR WX W/SPE G/SPE TEMP DEWP FEEL
20/09/20 10:50 EGHH 200950Z 04011KT CAVOK 18/12 Q1018 12.7mph 18°C 12°C 20.3°C
20/09/20 10:20 EGHH 200920Z 03011KT CAVOK 17/13 Q1018 12.7mph 17°C 13°C 19.8°C
20/09/20 09:50 EGHH 200850Z 03012KT 340V050 CAVOK 16/12 Q1017 13.8mph 16°C 12°C 18.3°C
20/09/20 09:20 EGHH 200820Z 03012KT CAVOK 16/12 Q1017 13.8mph 16°C 12°C 18.3°C
20/09/20 08:50 EGHH 200750Z 03013KT CAVOK 15/12 Q1017 15.0mph 15°C 12°C 17.3°C
20/09/20 08:20 EGHH 200720Z 02008KT CAVOK 15/12 Q1017 9.2mph 15°C 12°C 17.3°C
20/09/20 07:50 EGHH 200650Z 02010KT CAVOK 14/12 Q1017 11.5mph 14°C 12°C 16.3°C
20/09/20 07:20 EGHH 200620Z 02008KT CAVOK 14/12 Q1017 9.2mph 14°C 12°C 16.3°C
20/09/20 06:50 EGHH 200550Z 03009KT CAVOK 15/12 Q1016 10.4mph 15°C 12°C 17.3°C
20/09/20 06:20 EGHH 200520Z 03012KT CAVOK 15/12 Q1016 13.8mph 15°C 12°C 17.3°C
20/09/20 05:50 EGHH 200450Z 03011KT CAVOK 15/12 Q1016 12.7mph 15°C 12°C 17.3°C
19/09/20 23:20 EGHH 192220Z 04008KT CAVOK 18/09 Q1016 9.2mph 18°C 9°C 18.8°C
19/09/20 22:50 EGHH 192150Z 05010KT CAVOK 19/09 Q1016 11.5mph 19°C 9°C 19.8°C
19/09/20 22:20 EGHH 192120Z 04010KT CAVOK 19/10 Q1015 11.5mph 19°C 10°C 20.3°C
19/09/20 21:50 EGHH 192050Z 04008KT CAVOK 19/10 Q1015 9.2mph 19°C 10°C 20.3°C
19/09/20 21:20 EGHH 192020Z 05009KT CAVOK 20/10 Q1015 10.4mph 20°C 10°C 21.3°C
19/09/20 20:50 EGHH 191950Z 04008KT CAVOK 20/10 Q1015 9.2mph 20°C 10°C 21.3°C
19/09/20 20:20 EGHH 191920Z 04008KT CAVOK 20/09 Q1015 9.2mph 20°C 9°C 20.8°C
19/09/20 19:50 EGHH 191850Z 07006KT CAVOK 20/10 Q1015 6.9mph 20°C 10°C 21.3°C
19/09/20 19:20 EGHH 191820Z 07006KT 9999 FEW044 20/11 Q1015 6.9mph 20°C 11°C 21.8°C
19/09/20 18:20 EGHH 191720Z 06006KT 9999 FEW044 22/12 Q1014 6.9mph 22°C 12°C 24.3°C
19/09/20 17:50 EGHH 191650Z 07005KT 9999 SCT044 22/13 Q1014 5.8mph 22°C 13°C 24.8°C
19/09/20 16:50 EGHH 191550Z 06009KT 9999 SCT043 23/12 Q1014 10.4mph 23°C 12°C 25.3°C
19/09/20 16:20 EGHH 191520Z 06012KT 9999 FEW044 23/12 Q1013 13.8mph 23°C 12°C 25.3°C
19/09/20 15:50 EGHH 191450Z 06015KT CAVOK 23/12 Q1014 17.3mph 23°C 12°C 25.3°C
19/09/20 15:20 EGHH 191420Z 06014KT CAVOK 23/13 Q1014 16.1mph 23°C 13°C 25.8°C
19/09/20 14:50 EGHH 191350Z 06012KT CAVOK 23/13 Q1014 13.8mph 23°C 13°C 25.8°C
19/09/20 14:20 EGHH 191320Z 06014KT CAVOK 23/13 Q1014 16.1mph 23°C 13°C 25.8°C
19/09/20 13:50 EGHH 191250Z 05012KT CAVOK 22/13 Q1014 13.8mph 22°C 13°C 24.8°C
19/09/20 13:20 EGHH 191220Z 05014KT CAVOK 22/13 Q1014 16.1mph 22°C 13°C 24.8°C
19/09/20 12:50 EGHH 191150Z 05015KT CAVOK 21/12 Q1014 17.3mph 21°C 12°C 23.3°C
19/09/20 12:20 EGHH 191120Z 05014KT CAVOK 20/12 Q1014 16.1mph 20°C 12°C 22.3°C
19/09/20 11:50 EGHH 191050Z 04013KT CAVOK 20/12 Q1014 15.0mph 20°C 12°C 22.3°C
19/09/20 11:20 EGHH 191020Z 03014KT CAVOK 19/12 Q1015 16.1mph 19°C 12°C 21.3°C
19/09/20 10:50 EGHH 190950Z 03015KT CAVOK 18/12 Q1015 17.3mph 18°C 12°C 20.3°C
19/09/20 10:20 EGHH 190920Z 03014KT CAVOK 17/12 Q1015 16.1mph 17°C 12°C 19.3°C
19/09/20 09:50 EGHH 190850Z 03011KT CAVOK 16/12 Q1015 12.7mph 16°C 12°C 18.3°C
19/09/20 09:20 EGHH 190820Z 04011KT CAVOK 16/12 Q1015 12.7mph 16°C 12°C 18.3°C
19/09/20 08:50 EGHH 190750Z 03011KT CAVOK 16/12 Q1016 12.7mph 16°C 12°C 18.3°C
19/09/20 08:20 EGHH 190720Z 03011KT CAVOK 15/12 Q1015 12.7mph 15°C 12°C 17.3°C
19/09/20 07:50 EGHH 190650Z 03010KT CAVOK 13/11 Q1015 11.5mph 13°C 11°C 14.8°C
19/09/20 07:20 EGHH 190620Z 03010KT CAVOK 13/11 Q1015 11.5mph 13°C 11°C 14.8°C
19/09/20 06:50 EGHH 190550Z 02010KT CAVOK 13/11 Q1015 11.5mph 13°C 11°C 14.8°C
19/09/20 06:20 EGHH 190520Z 03010KT CAVOK 13/11 Q1015 11.5mph 13°C 11°C 14.8°C
18/09/20 22:50 EGHH 182150Z 04008KT CAVOK 15/10 Q1018 9.2mph 15°C 10°C 16.3°C
18/09/20 22:20 EGHH 182120Z 04007KT CAVOK 15/09 Q1018 8.1mph 15°C 9°C 15.8°C
18/09/20 21:20 EGHH 182020Z 07007KT CAVOK 15/08 Q1019 8.1mph 15°C 8°C 15.4°C
18/09/20 20:50 EGHH 181950Z 05009KT CAVOK 16/08 Q1019 10.4mph 16°C 8°C 16.4°C
18/09/20 20:20 EGHH 181920Z 06009KT CAVOK 16/08 Q1018 10.4mph 16°C 8°C 16.4°C
18/09/20 19:50 EGHH 181850Z 05008KT CAVOK 17/08 Q1018 9.2mph 17°C 8°C 17.4°C
18/09/20 19:20 EGHH 181820Z 05010KT CAVOK 17/08 Q1018 11.5mph 17°C 8°C 17.4°C
18/09/20 18:50 EGHH 181750Z 06011KT CAVOK 18/09 Q1018 12.7mph 18°C 9°C 18.8°C
18/09/20 18:20 EGHH 181720Z 05011KT CAVOK 19/09 Q1017 12.7mph 19°C 9°C 19.8°C
18/09/20 17:50 EGHH 181650Z 05012KT CAVOK 20/09 Q1017 13.8mph 20°C 9°C 20.8°C
18/09/20 17:20 EGHH 181620Z 06012KT CAVOK 20/09 Q1017 13.8mph 20°C 9°C 20.8°C
18/09/20 16:20 EGHH 181520Z 05013KT CAVOK 21/10 Q1018 15.0mph 21°C 10°C 22.3°C
18/09/20 15:50 EGHH 181450Z 05010KT CAVOK 21/10 Q1018 11.5mph 21°C 10°C 22.3°C
18/09/20 15:20 EGHH 181420Z 08011KT CAVOK 22/10 Q1019 12.7mph 22°C 10°C 23.3°C
18/09/20 14:50 EGHH 181350Z 07014KT CAVOK 22/11 Q1019 16.1mph 22°C 11°C 23.8°C
18/09/20 14:20 EGHH 181320Z 06014KT 010V090 CAVOK 21/10 Q1019 16.1mph 21°C 10°C 22.3°C
18/09/20 13:50 EGHH 181250Z 07015KT 020V100 CAVOK 22/11 Q1019 17.3mph 22°C 11°C 23.8°C
18/09/20 13:20 EGHH 181220Z 07016KT CAVOK 21/11 Q1020 18.4mph 21°C 11°C 22.8°C
18/09/20 12:50 EGHH 181150Z 07016KT CAVOK 20/10 Q1020 18.4mph 20°C 10°C 21.3°C
18/09/20 12:20 EGHH 181120Z 08015KT CAVOK 20/10 Q1020 17.3mph 20°C 10°C 21.3°C
18/09/20 11:50 EGHH 181050Z 07016KT CAVOK 20/09 Q1021 18.4mph 20°C 9°C 20.8°C
18/09/20 11:20 EGHH 181020Z 07015KT CAVOK 19/10 Q1021 17.3mph 19°C 10°C 20.3°C
18/09/20 10:50 EGHH 180950Z 07013KT CAVOK 19/10 Q1021 15.0mph 19°C 10°C 20.3°C
18/09/20 10:20 EGHH 180920Z 06011KT CAVOK 18/11 Q1021 12.7mph 18°C 11°C 19.8°C
18/09/20 09:50 EGHH 180850Z 06015KT CAVOK 16/11 Q1022 17.3mph 16°C 11°C 17.8°C
18/09/20 09:20 EGHH 180820Z 06013KT CAVOK 15/10 Q1022 15.0mph 15°C 10°C 16.3°C
18/09/20 08:50 EGHH 180750Z 05015KT CAVOK 14/10 Q1021 17.3mph 14°C 10°C 15.3°C
18/09/20 08:20 EGHH 180720Z 05012KT CAVOK 13/09 Q1021 13.8mph 13°C 9°C 13.8°C
18/09/20 07:50 EGHH 180650Z 04013KT CAVOK 12/09 Q1021 15.0mph 12°C 9°C 12.8°C
18/09/20 07:20 EGHH 180620Z 04012KT CAVOK 11/09 Q1021 13.8mph 11°C 9°C 11.8°C
18/09/20 06:50 EGHH 180550Z 04012KT CAVOK 10/08 Q1021 13.8mph 10°C 8°C 10.4°C
18/09/20 06:20 EGHH 180520Z 03009KT CAVOK 10/08 Q1021 10.4mph 10°C 8°C 10.4°C
18/09/20 05:50 EGHH 180450Z 04008KT CAVOK 10/08 Q1022 9.2mph 10°C 8°C 10.4°C
17/09/20 22:20 EGHH 172120Z 07011KT CAVOK 14/08 Q1025 12.7mph 14°C 8°C 14.4°C
17/09/20 21:50 EGHH 172050Z 07009KT CAVOK 14/07 Q1025 10.4mph 14°C 7°C 14.0°C
17/09/20 21:20 EGHH 172020Z 08010KT CAVOK 15/06 Q1025 11.5mph 15°C 6°C 14.6°C
17/09/20 20:50 EGHH 171950Z 07007KT CAVOK 14/04 Q1025 8.1mph 14°C 4°C 13.0°C
17/09/20 20:20 EGHH 171920Z 08007KT CAVOK 16/07 Q1025 8.1mph 16°C 7°C 16.0°C
17/09/20 19:50 EGHH 171850Z 07008KT CAVOK 16/08 Q1024 9.2mph 16°C 8°C 16.4°C
17/09/20 18:50 EGHH 171750Z 06006KT CAVOK 18/11 Q1024 6.9mph 18°C 11°C 19.8°C
17/09/20 18:20 EGHH 171720Z 07009KT CAVOK 20/10 Q1024 10.4mph 20°C 10°C 21.3°C
17/09/20 17:50 EGHH 171650Z 07010KT CAVOK 21/10 Q1024 11.5mph 21°C 10°C 22.3°C
17/09/20 17:20 EGHH 171620Z 07010KT CAVOK 21/10 Q1024 11.5mph 21°C 10°C 22.3°C
17/09/20 16:50 EGHH 171550Z 06011KT CAVOK 22/11 Q1024 12.7mph 22°C 11°C 23.8°C
17/09/20 16:20 EGHH 171520Z 06011KT CAVOK 22/11 Q1024 12.7mph 22°C 11°C 23.8°C
17/09/20 15:50 EGHH 171450Z 06014KT CAVOK 22/11 Q1025 16.1mph 22°C 11°C 23.8°C
17/09/20 15:20 EGHH 171420Z 07012KT 020V110 CAVOK 22/11 Q1025 13.8mph 22°C 11°C 23.8°C
17/09/20 14:50 EGHH 171350Z 06013KT CAVOK 22/10 Q1025 15.0mph 22°C 10°C 23.3°C
17/09/20 14:20 EGHH 171320Z 06013KT CAVOK 22/10 Q1026 15.0mph 22°C 10°C 23.3°C
17/09/20 13:50 EGHH 171250Z 07012KT CAVOK 21/10 Q1026 13.8mph 21°C 10°C 22.3°C
17/09/20 13:20 EGHH 171220Z 08013KT 010V110 CAVOK 21/10 Q1026 15.0mph 21°C 10°C 22.3°C
17/09/20 12:50 EGHH 171150Z 07012KT 030V110 CAVOK 21/10 Q1027 13.8mph 21°C 10°C 22.3°C